Flight Track Log - Related Links

Times and Time Zones

All times are in EDT time to prevent confusion due to time zone crossing. See the UAL395 flight status page for this flight to view local times or setup timezone preferences in your user account.

Time Position Orientation Groundspeed Altitude Reporting Facility
EDT Latitude Longitude Course Direction KTS MPH feet Rate Location/Type
Mon 02:34:37 PM 38.9833 -77.4833 270° West 177 204 1,700  Level Potomac TRACON
Mon 02:35:37 PM 38.9667 -77.5500 252° West 245 282 4,000 2,054 Climbing Potomac TRACON
Mon 02:37:00 PM 38.8828 -77.9649 293° West  Level FlightAware Approximate
Mon 02:37:06 PM 38.9122 -77.6697 240° Southwest 259 298 6,800  Level Washington Center
Mon 02:38:00 PM 38.9147 -78.0920 288° West  Level FlightAware Approximate
Mon 02:38:05 PM 38.8919 -77.7492 252° West 259 298 9,000  Level Washington Center
Mon 02:39:00 PM 38.9500 -78.2157 270° West  Level FlightAware Approximate
Mon 02:39:05 PM 38.8797 -77.8528 261° West 264 304 12,300  Level Washington Center
Mon 02:40:06 PM 38.8906 -77.9333 280° West 269 310 14,700 2,350 Climbing Washington Center
Mon 02:41:05 PM 38.9194 -78.0542 287° West 281 323 17,000 2,600 Climbing Washington Center
Mon 02:42:06 PM 38.9486 -78.1619 289° West 300 345 19,900 2,218 Climbing Washington Center
Mon 02:43:04 PM 38.9647 -78.2747 280° West 310 357 21,400 1,261 Climbing Washington Center
Mon 02:44:05 PM 38.9742 -78.4058 275° West 334 384 22,400 1,525 Climbing Washington Center
Mon 02:45:06 PM 38.9817 -78.5397 274° West 366 421 24,500 1,613 Climbing Washington Center
Mon 02:46:04 PM 38.9928 -78.6736 276° West 378 435 25,600 1,210 Climbing Washington Center
Mon 02:47:05 PM 39.0017 -78.8131 275° West 385 443 26,900 1,091 Climbing Washington Center
Mon 02:48:05 PM 39.0103 -78.9550 275° West 397 457 27,800 550 Climbing Washington Center
Mon 02:49:05 PM 39.0208 -79.0917 276° West 397 457 28,000 99 Climbing Washington Center
Mon 02:50:06 PM 39.0294 -79.2283 275° West 397 457 28,000  Level Washington Center
Mon 02:51:07 PM 39.0375 -79.3678 274° West 397 457 28,000  Level Washington Center
Mon 02:52:05 PM 39.0478 -79.5047 276° West 390 449 28,000  Level Washington Center
Mon 02:53:06 PM 39.0564 -79.6256 275° West 390 449 28,000  Level Washington Center
Mon 02:54:06 PM 39.0642 -79.7650 274° West 390 449 28,000  Level Washington Center
Mon 02:55:01 PM 39.0675 -79.9100 272° West 387 445 28,000  Level Indianapolis Center
Mon 02:56:03 PM 39.0742 -80.0447 274° West 388 447 28,000  Level Indianapolis Center
Mon 02:57:06 PM 39.0831 -80.1858 275° West 387 445 28,000  Level Indianapolis Center
Mon 02:58:08 PM 39.0894 -80.3239 273° West 387 445 28,000  Level Indianapolis Center
Mon 02:59:10 PM 39.0972 -80.4606 274° West 384 442 28,000 629 Level Indianapolis Center
Mon 03:00:12 PM 39.1328 -80.5911 289° West 405 466 29,300 1,403 Climbing Indianapolis Center
Mon 03:01:14 PM 39.1975 -80.7425 299° West 406 467 30,900 1,306 Climbing Indianapolis Center
Mon 03:02:16 PM 39.2528 -80.8714 299° West 409 471 32,000 532 Climbing Indianapolis Center
Mon 03:03:18 PM 39.3069 -80.9964 299° West 402 463 32,000 -387 Level Indianapolis Center
Mon 03:04:20 PM 39.3594 -81.1242 298° West 406 467 31,200 -968 Descending Indianapolis Center
Mon 03:05:22 PM 39.3636 -81.2650 272° West 400 460 30,000 -581 Descending Indianapolis Center
Mon 03:06:24 PM 39.3514 -81.4061 264° West 398 458 30,000  Level Indianapolis Center
Mon 03:07:26 PM 39.3386 -81.5719 264° West 390 449 30,000  Level Indianapolis Center
Mon 03:08:28 PM 39.3292 -81.7128 265° West 394 453 30,000  Level Indianapolis Center
Mon 03:09:30 PM 39.3186 -81.8553 265° West 400 460 30,000  Level Indianapolis Center
Mon 03:10:32 PM 39.3092 -81.9953 265° West 396 456 30,000  Level Indianapolis Center
Mon 03:11:34 PM 39.2997 -82.1364 265° West 396 456 30,000  Level Indianapolis Center
Mon 03:12:36 PM 39.3064 -82.3031 273° West 399 459 30,000  Level Indianapolis Center
Mon 03:13:38 PM 39.3719 -82.4222 305° West 405 466 30,000 -48 Level Indianapolis Center
Mon 03:14:40 PM 39.4339 -82.5264 308° West 407 468 29,900 -49 Descending Indianapolis Center
Mon 03:15:41 PM 39.5167 -82.6611 309° West 406 467 29,900  Level Indianapolis Center
Mon 03:16:43 PM 39.5864 -82.7769 308° West 405 466 29,900 48 Level Indianapolis Center
Mon 03:17:45 PM 39.6556 -82.8933 308° West 405 466 30,000 48 Climbing Indianapolis Center
Mon 03:18:47 PM 39.7253 -83.0097 308° West 406 467 30,000  Level Indianapolis Center
Mon 03:19:49 PM 39.7939 -83.1250 308° West 403 464 30,000 -48 Level Indianapolis Center
Mon 03:20:51 PM 39.8625 -83.2394 308° West 401 461 29,900 -48 Descending Indianapolis Center
Mon 03:21:53 PM 39.9422 -83.3725 308° West 402 463 29,900  Level Indianapolis Center
Mon 03:22:55 PM 40.0083 -83.4875 307° West 401 461 29,900 48 Level Indianapolis Center
Mon 03:23:57 PM 40.0756 -83.6025 307° West 399 459 30,000 48 Climbing Indianapolis Center
Mon 03:24:59 PM 40.1417 -83.7172 307° West 396 456 30,000  Level Indianapolis Center
Mon 03:26:01 PM 40.2103 -83.8331 308° West 399 459 30,000  Level Indianapolis Center
Mon 03:27:03 PM 40.2886 -83.9686 307° West 397 457 30,000  Level Indianapolis Center
Mon 03:28:05 PM 40.3564 -84.0856 307° West 399 459 30,000  Level Indianapolis Center
Mon 03:29:07 PM 40.4222 -84.2019 307° West 396 456 30,000 -48 Level Indianapolis Center
Mon 03:30:09 PM 40.4892 -84.3175 307° West 393 452 29,900  Descending Indianapolis Center
Mon 03:31:11 PM 40.5558 -84.4353 307° West 397 457 30,000  Climbing Indianapolis Center
Mon 03:32:13 PM 40.6231 -84.5531 307° West 399 459 29,900 -48 Descending Indianapolis Center
Mon 03:33:15 PM 40.6892 -84.6697 307° West 394 453 29,900  Level Indianapolis Center
Mon 03:34:17 PM 40.7547 -84.7872 306° West 394 453 29,900 48 Level Indianapolis Center
Mon 03:35:19 PM 40.8283 -84.9181 307° West 392 451 30,000 63 Climbing Indianapolis Center
Mon 03:35:53 PM 40.8594 -84.9700 308° West 393 452 30,000  Level Chicago Center
Mon 03:36:55 PM 40.9125 -85.0953 299° West 394 453 30,000  Level Chicago Center
Mon 03:37:57 PM 40.9744 -85.2486 298° West 392 451 30,000  Level Chicago Center
Mon 03:38:59 PM 41.0283 -85.3844 298° West 409 471 30,000  Level Chicago Center
Mon 03:40:01 PM 41.0825 -85.5200 298° West 415 478 30,000 -480 Level Chicago Center
Mon 03:41:04 PM 41.1342 -85.6542 297° West 409 471 29,000 -1,488 Descending Chicago Center
Mon 03:42:06 PM 41.1883 -85.7900 298° West 412 474 26,900 -2,081 Descending Chicago Center
Mon 03:43:08 PM 41.2394 -85.9253 297° West 411 473 24,700 -2,177 Descending Chicago Center
Mon 03:44:10 PM 41.2847 -86.0497 296° West 380 437 22,400 -2,274 Descending Chicago Center
Mon 03:45:12 PM 41.3272 -86.1972 291° West 365 420 20,000 -1,161 Descending Chicago Center
Mon 03:46:14 PM 41.3872 -86.3086 306° West 367 422 20,000  Level Chicago Center
Mon 03:47:16 PM 41.4469 -86.4158 307° West 362 417 20,000 -1,113 Level Chicago Center
Mon 03:48:18 PM 41.5075 -86.5225 307° West 361 415 17,700 -2,274 Descending Chicago Center
Mon 03:49:20 PM 41.5650 -86.6289 306° West 355 409 15,300 -2,468 Descending Chicago Center
Mon 03:50:22 PM 41.6297 -86.7436 307° West 345 397 12,600 -1,597 Descending Chicago Center
Mon 03:51:24 PM 41.7086 -86.8006 332° Northwest 348 400 12,000 -624 Descending Chicago Center
Mon 03:52:27 PM 41.8039 -86.8144 354° North 348 400 11,300 -528 Descending Chicago Center
Mon 03:53:29 PM 41.8903 -86.8614 338° Northwest 345 397 10,900 -581 Descending Chicago Center
Mon 03:54:31 PM 41.9392 -86.9828 298° West 310 357 10,100 -726 Descending Chicago Center
Mon 03:55:33 PM 41.9739 -87.0703 298° West 275 316 9,400 -532 Descending Chicago Center
Mon 03:56:35 PM 41.9819 -87.1650 277° West 268 308 9,000 -435 Descending Chicago Center
Mon 03:57:37 PM 41.9822 -87.2650 270° West 270 311 8,500 -629 Descending Chicago Center
Mon 03:58:39 PM 41.9836 -87.3842 271° West 269 310 7,700 -774 Descending Chicago Center
Mon 03:59:41 PM 41.9819 -87.4800 269° West 261 300 6,900 -871 Descending Chicago Center
Mon 04:00:43 PM 41.9831 -87.5792 271° West 266 306 5,900 -1,210 Descending Chicago Center
Mon 04:01:45 PM 41.9844 -87.6681 271° West 247 284 4,400 -1,392 Descending Chicago Center
Mon 04:02:48 PM 41.9839 -87.7533 270° West 235 270 3,000 -1,344 Descending Chicago Center
Mon 04:03:50 PM 41.9839 -87.8264 270° West 188 216 1,600 -871 Descending Chicago Center
Mon 04:04:52 PM 41.9836 -87.8700 270° West 161 185 1,200 -387 Descending Chicago Center
Mon 04:06:00 PM 41.9667 -87.9000 270° West  Level FlightAware Approximate

Login

Don't have an account? Register now (free) for customized features, flight alerts, and more!